| time (UTC) | temp F | wind direction | speed MPH | gust MPH | rain 1hr in | rain 24hr in | rain mn in | humidity % | barometer mb |
| 20260904041504 | 55 | 187 | 0.0 | 0.0 | 0.00 | 0.69 | 0.69 | 93 | 1010.2 |
| 20260904034503 | 55 | 187 | 0.0 | 0.0 | 0.00 | 0.69 | 0.69 | 93 | 1010.2 |
| 20260904033004 | 55 | 187 | 0.0 | 0.0 | 0.00 | 0.69 | 0.69 | 93 | 1010.0 |
| 20260904031502 | 55 | 187 | 0.0 | 0.0 | 0.01 | 0.69 | 0.69 | 92 | 1009.9 |
| 20260904030005 | 55 | 187 | 0.0 | 0.0 | 0.03 | 0.69 | 0.69 | 92 | 1009.9 |
| 20260904024503 | 56 | 187 | 0.0 | 2.0 | 0.15 | 0.69 | 0.69 | 91 | 1009.8 |
| 20260904023002 | 56 | 187 | 0.0 | 0.0 | 0.50 | 0.69 | 0.69 | 91 | 1009.8 |
| 20260904021504 | 56 | 187 | 0.0 | 0.0 | 0.56 | 0.68 | 0.68 | 90 | 1009.8 |
| 20260904020005 | 56 | 187 | 0.0 | 0.0 | 0.55 | 0.66 | 0.66 | 90 | 1009.9 |
| 20260904014502 | 57 | 187 | 0.0 | 1.0 | 0.43 | 0.55 | 0.54 | 88 | 1010.0 |
| 20260904013003 | 58 | 187 | 0.0 | 5.0 | 0.08 | 0.20 | 0.19 | 84 | 1009.8 |
| 20260904011504 | 61 | 122 | 1.0 | 4.0 | 0.01 | 0.13 | 0.12 | 80 | 1009.4 |
| 20260904010006 | 63 | 85 | 0.0 | 2.0 | 0.00 | 0.12 | 0.11 | 74 | 1009.1 |
| 20260904004503 | 63 | 98 | 0.0 | 3.0 | 0.00 | 0.18 | 0.11 | 71 | 1009.1 |
| 20260904003002 | 64 | 90 | 0.0 | 3.0 | 0.00 | 0.18 | 0.11 | 66 | 1009.0 |
| 20260904001503 | 64 | 83 | 1.0 | 3.0 | 0.00 | 0.18 | 0.11 | 66 | 1008.9 |
| 20260903234503 | 64 | 100 | 0.0 | 2.0 | 0.00 | 0.18 | 0.11 | 70 | 1009.1 |
| 20260903233002 | 65 | 158 | 0.0 | 1.0 | 0.00 | 0.18 | 0.11 | 62 | 1009.0 |
| 20260903231502 | 65 | 158 | 0.0 | 2.0 | 0.00 | 0.18 | 0.11 | 54 | 1008.7 |
| 20260903224502 | 66 | 185 | 0.0 | 2.0 | 0.00 | 0.24 | 0.11 | 52 | 1008.7 |
| 20260903223003 | 66 | 185 | 0.0 | 2.0 | 0.00 | 0.24 | 0.11 | 54 | 1008.8 |
| 20260903221507 | 66 | 60 | 0.0 | 2.0 | 0.00 | 0.24 | 0.11 | 54 | 1008.8 |
| 20260903220006 | 65 | 135 | 0.0 | 2.0 | 0.00 | 0.30 | 0.11 | 56 | 1008.9 |
| 20260903214502 | 64 | 186 | 0.0 | 2.0 | 0.00 | 0.30 | 0.11 | 57 | 1008.9 |
| 20260903213001 | 64 | 25 | 0.0 | 0.0 | 0.00 | 0.30 | 0.11 | 57 | 1009.1 |
| 20260903211501 | 64 | 208 | 0.0 | 0.0 | 0.00 | 0.30 | 0.11 | 58 | 1009.2 |
| 20260903210005 | 64 | 208 | 0.0 | 2.0 | 0.00 | 0.35 | 0.11 | 59 | 1009.1 |
| 20260903204502 | 63 | 201 | 0.0 | 3.0 | 0.00 | 0.35 | 0.11 | 58 | 1009.1 |
| 20260903201502 | 63 | 42 | 0.0 | 2.0 | 0.00 | 0.35 | 0.11 | 68 | 1009.0 |
| 20260903200006 | 62 | 212 | 0.0 | 2.0 | 0.00 | 0.35 | 0.11 | 68 | 1008.9 |
| 20260903194501 | 61 | 16 | 0.0 | 2.0 | 0.00 | 0.35 | 0.11 | 71 | 1008.9 |
| 20260903193003 | 61 | 11 | 0.0 | 2.0 | 0.00 | 0.35 | 0.11 | 73 | 1008.8 |
| 20260903190002 | 59 | 212 | 0.0 | 2.0 | 0.00 | 0.35 | 0.11 | 75 | 1008.9 |
| 20260903184503 | 58 | 212 | 0.0 | 2.0 | 0.00 | 0.35 | 0.11 | 81 | 1008.9 |
| 20260903183004 | 58 | 212 | 0.0 | 2.0 | 0.00 | 0.35 | 0.11 | 81 | 1009.0 |
| 20260903180006 | 57 | 212 | 0.0 | 2.0 | 0.00 | 0.35 | 0.11 | 84 | 1008.8 |
| 20260903174501 | 56 | 242 | 0.0 | 2.0 | 0.00 | 0.35 | 0.11 | 87 | 1008.8 |
| 20260903173005 | 56 | 257 | 0.0 | 0.0 | 0.00 | 0.35 | 0.11 | 91 | 1008.7 |
| 20260903171501 | 55 | 257 | 0.0 | 2.0 | 0.00 | 0.35 | 0.11 | 91 | 1008.8 |
| 20260903170002 | 55 | 257 | 0.0 | 1.0 | 0.01 | 0.35 | 0.11 | 93 | 1008.8 |
| 20260903164502 | 54 | 257 | 0.0 | 1.0 | 0.01 | 0.35 | 0.11 | 93 | 1008.8 |
| 20260903163001 | 54 | 257 | 0.0 | 2.0 | 0.01 | 0.35 | 0.11 | 94 | 1008.7 |
| 20260903161502 | 53 | 309 | 0.0 | 2.0 | 0.01 | 0.35 | 0.11 | 94 | 1008.8 |
| 20260903160003 | 53 | 309 | 0.0 | 2.0 | 0.00 | 0.34 | 0.10 | 93 | 1008.9 |
| 20260903154501 | 53 | 309 | 0.0 | 0.0 | 0.00 | 0.34 | 0.10 | 94 | 1008.9 |
| 20260903153002 | 53 | 309 | 0.0 | 0.0 | 0.00 | 0.34 | 0.10 | 94 | 1008.7 |
| 20260903151501 | 53 | 309 | 0.0 | 0.0 | 0.00 | 0.34 | 0.10 | 94 | 1008.6 |
| 20260903150002 | 52 | 309 | 0.0 | 0.0 | 0.00 | 0.34 | 0.10 | 94 | 1008.6 |
| 20260903144502 | 52 | 309 | 0.0 | 0.0 | 0.01 | 0.34 | 0.10 | 93 | 1008.4 |
| 20260903143001 | 52 | 309 | 0.0 | 0.0 | 0.03 | 0.34 | 0.10 | 93 | 1008.3 |
| 20260903141502 | 52 | 309 | 0.0 | 2.0 | 0.05 | 0.34 | 0.10 | 93 | 1008.2 |
| 20260903140006 | 53 | 322 | 0.0 | 0.0 | 0.06 | 0.34 | 0.10 | 93 | 1008.2 |
| 20260903134501 | 53 | 322 | 0.0 | 0.0 | 0.05 | 0.33 | 0.09 | 93 | 1008.1 |
| 20260903133001 | 53 | 322 | 0.0 | 0.0 | 0.04 | 0.31 | 0.07 | 93 | 1008.0 |
| 20260903131502 | 53 | 322 | 0.0 | 0.0 | 0.05 | 0.29 | 0.05 | 93 | 1008.0 |
| 20260903130006 | 53 | 322 | 0.0 | 0.0 | 0.04 | 0.28 | 0.04 | 92 | 1007.8 |
| 20260903124503 | 53 | 322 | 0.0 | 0.0 | 0.04 | 0.28 | 0.04 | 92 | 1007.8 |
| 20260903123001 | 53 | 322 | 0.0 | 0.0 | 0.03 | 0.27 | 0.03 | 91 | 1007.9 |
| 20260903121501 | 53 | 322 | 0.0 | 0.0 | 0.00 | 0.24 | 0.00 | 90 | 1007.9 |
| 20260903120000 | 53 | 322 | 0.0 | 0.0 | 0.00 | 0.24 | 0.00 | 90 | 1007.6 |
| 20260903114503 | 53 | 322 | 0.0 | 0.0 | 0.00 | 0.24 | 0.00 | 90 | 1007.4 |
| 20260903113001 | 53 | 322 | 0.0 | 0.0 | 0.00 | 0.24 | 0.00 | 90 | 1007.4 |
| 20260903111500 | 53 | 322 | 0.0 | 0.0 | 0.00 | 0.24 | 0.00 | 90 | 1007.3 |
| 20260903110000 | 52 | 322 | 0.0 | 0.0 | 0.00 | 0.24 | 0.00 | 90 | 1007.2 |
| 20260903104500 | 52 | 322 | 0.0 | 0.0 | 0.00 | 0.24 | 0.00 | 91 | 1007.4 |
| 20260903103000 | 52 | 322 | 0.0 | 0.0 | 0.00 | 0.24 | 0.00 | 92 | 1007.4 |
| 20260903101501 | 52 | 322 | 0.0 | 0.0 | 0.00 | 0.24 | 0.00 | 92 | 1007.4 |
| 20260903100000 | 52 | 322 | 0.0 | 0.0 | 0.00 | 0.24 | 0.00 | 92 | 1007.3 |
| 20260903094500 | 52 | 322 | 0.0 | 0.0 | 0.00 | 0.24 | 0.00 | 92 | 1007.3 |
| 20260903093000 | 52 | 322 | 0.0 | 1.0 | 0.00 | 0.24 | 0.00 | 91 | 1007.3 |
| 20260903091501 | 52 | 322 | 0.0 | 0.0 | 0.00 | 0.24 | 0.00 | 92 | 1007.3 |
| 20260903090000 | 52 | 322 | 0.0 | 0.0 | 0.00 | 0.24 | 0.00 | 92 | 1007.3 |
| 20260903084500 | 52 | 322 | 0.0 | 0.0 | 0.00 | 0.24 | 0.00 | 93 | 1007.3 |
| 20260903083000 | 52 | 322 | 0.0 | 0.0 | 0.00 | 0.24 | 0.00 | 92 | 1007.2 |
| 20260903081500 | 52 | 322 | 0.0 | 0.0 | 0.00 | 0.24 | 0.00 | 92 | 1007.3 |
| 20260903080004 | 52 | 322 | 0.0 | 0.0 | 0.00 | 0.24 | 0.00 | 92 | 1007.2 |
| 20260903074504 | 52 | 322 | 0.0 | 0.0 | 0.00 | 0.24 | 0.00 | 93 | 1007.2 |
| 20260903073004 | 52 | 322 | 0.0 | 0.0 | 0.00 | 0.24 | 0.00 | 93 | 1007.2 |
| 20260903071505 | 52 | 322 | 0.0 | 0.0 | 0.00 | 0.24 | 0.00 | 93 | 1007.1 |
| 20260903064504 | 52 | 322 | 0.0 | 0.0 | 0.00 | 0.24 | 0.24 | 93 | 1007.1 |
| 20260903063004 | 53 | 322 | 0.0 | 1.0 | 0.00 | 0.24 | 0.24 | 93 | 1007.1 |
| 20260903061503 | 53 | 322 | 0.0 | 0.0 | 0.00 | 0.24 | 0.24 | 93 | 1007.2 |
| 20260903060006 | 53 | 322 | 0.0 | 0.0 | 0.00 | 0.24 | 0.24 | 93 | 1007.2 |
| 20260903054504 | 53 | 322 | 0.0 | 0.0 | 0.00 | 0.24 | 0.24 | 93 | 1007.2 |
| 20260903051503 | 53 | 322 | 0.0 | 0.0 | 0.00 | 0.24 | 0.24 | 92 | 1007.2 |
| 20260903050005 | 53 | 322 | 0.0 | 0.0 | 0.00 | 0.24 | 0.24 | 92 | 1007.1 |
| 20260903043003 | 54 | 322 | 0.0 | 0.0 | 0.00 | 0.24 | 0.24 | 91 | 1007.0 |